sensor_id;sensor_type;location;lat;lon;timestamp;temperature;humidity
573;DHT22;271;51.114;13.780;2023-02-10T00:02:29;-0.80;1.00
573;DHT22;271;51.114;13.780;2023-02-10T00:05:18;-1.00;1.00
573;DHT22;271;51.114;13.780;2023-02-10T00:08:06;-1.00;1.00
573;DHT22;271;51.114;13.780;2023-02-10T00:10:56;-1.10;1.00
573;DHT22;271;51.114;13.780;2023-02-10T00:13:44;-1.10;1.00
573;DHT22;271;51.114;13.780;2023-02-10T00:16:32;-1.10;1.00
573;DHT22;271;51.114;13.780;2023-02-10T00:19:21;-1.10;1.00
573;DHT22;271;51.114;13.780;2023-02-10T00:22:11;-1.10;1.00
573;DHT22;271;51.114;13.780;2023-02-10T00:24:58;-1.10;1.00
573;DHT22;271;51.114;13.780;2023-02-10T00:27:46;-0.90;1.00
573;DHT22;271;51.114;13.780;2023-02-10T00:30:34;-1.00;1.00
573;DHT22;271;51.114;13.780;2023-02-10T00:33:22;-1.00;1.00
573;DHT22;271;51.114;13.780;2023-02-10T00:36:12;-1.00;1.00
573;DHT22;271;51.114;13.780;2023-02-10T00:39:01;-1.00;1.00
573;DHT22;271;51.114;13.780;2023-02-10T00:41:49;-1.10;1.00
573;DHT22;271;51.114;13.780;2023-02-10T00:44:36;-1.10;1.00
573;DHT22;271;51.114;13.780;2023-02-10T00:47:24;-1.10;1.00
573;DHT22;271;51.114;13.780;2023-02-10T00:50:12;-1.10;1.00
573;DHT22;271;51.114;13.780;2023-02-10T00:53:00;-1.10;1.00
573;DHT22;271;51.114;13.780;2023-02-10T00:55:49;-1.10;1.00
573;DHT22;271;51.114;13.780;2023-02-10T00:58:37;-1.00;1.00
573;DHT22;271;51.114;13.780;2023-02-10T01:01:25;-1.00;1.00
573;DHT22;271;51.114;13.780;2023-02-10T01:04:13;-1.00;1.00
573;DHT22;271;51.114;13.780;2023-02-10T01:07:01;-1.00;1.00
573;DHT22;271;51.114;13.780;2023-02-10T01:09:48;-1.00;1.00
573;DHT22;271;51.114;13.780;2023-02-10T01:12:37;-1.10;1.00
573;DHT22;271;51.114;13.780;2023-02-10T01:15:25;-1.10;1.00
573;DHT22;271;51.114;13.780;2023-02-10T01:18:13;-1.10;1.00
573;DHT22;271;51.114;13.780;2023-02-10T01:21:06;-1.10;1.00
573;DHT22;271;51.114;13.780;2023-02-10T01:23:55;-1.20;1.00
573;DHT22;271;51.114;13.780;2023-02-10T01:26:43;-1.10;1.00
573;DHT22;271;51.114;13.780;2023-02-10T01:29:32;-1.10;1.00
573;DHT22;271;51.114;13.780;2023-02-10T01:32:20;-1.10;1.00
573;DHT22;271;51.114;13.780;2023-02-10T01:35:08;-1.10;1.00
573;DHT22;271;51.114;13.780;2023-02-10T01:37:56;-1.20;1.00
573;DHT22;271;51.114;13.780;2023-02-10T01:40:47;-1.30;1.00
573;DHT22;271;51.114;13.780;2023-02-10T01:43:54;-1.30;1.00
573;DHT22;271;51.114;13.780;2023-02-10T01:46:43;-1.30;1.00
573;DHT22;271;51.114;13.780;2023-02-10T01:49:34;-1.40;1.00
573;DHT22;271;51.114;13.780;2023-02-10T01:52:26;-1.50;1.00
573;DHT22;271;51.114;13.780;2023-02-10T01:55:17;-1.60;1.00
573;DHT22;271;51.114;13.780;2023-02-10T01:58:09;-1.70;1.00
573;DHT22;271;51.114;13.780;2023-02-10T02:00:58;-1.70;1.00
573;DHT22;271;51.114;13.780;2023-02-10T02:03:47;-1.80;1.00
573;DHT22;271;51.114;13.780;2023-02-10T02:06:35;-2.00;1.00
573;DHT22;271;51.114;13.780;2023-02-10T02:09:23;-2.00;1.00
573;DHT22;271;51.114;13.780;2023-02-10T02:12:18;-2.10;1.00
573;DHT22;271;51.114;13.780;2023-02-10T02:15:16;-2.20;1.00
573;DHT22;271;51.114;13.780;2023-02-10T02:18:12;-2.20;1.00
573;DHT22;271;51.114;13.780;2023-02-10T02:21:29;-2.30;1.00
573;DHT22;271;51.114;13.780;2023-02-10T02:24:46;-2.30;1.00
573;DHT22;271;51.114;13.780;2023-02-10T02:28:00;-2.40;1.00
573;DHT22;271;51.114;13.780;2023-02-10T02:34:20;-2.50;1.00
573;DHT22;271;51.114;13.780;2023-02-10T02:37:11;-2.50;1.00
573;DHT22;271;51.114;13.780;2023-02-10T02:40:01;-2.60;1.00
573;DHT22;271;51.114;13.780;2023-02-10T02:42:49;-2.60;1.00
573;DHT22;271;51.114;13.780;2023-02-10T02:45:46;-2.60;1.00
573;DHT22;271;51.114;13.780;2023-02-10T02:48:50;-2.50;1.00
573;DHT22;271;51.114;13.780;2023-02-10T02:51:51;-2.60;1.00
573;DHT22;271;51.114;13.780;2023-02-10T02:54:45;-2.60;1.00
573;DHT22;271;51.114;13.780;2023-02-10T02:57:41;-2.60;1.00
573;DHT22;271;51.114;13.780;2023-02-10T03:00:34;-2.60;1.00
573;DHT22;271;51.114;13.780;2023-02-10T03:03:22;-2.60;1.00
573;DHT22;271;51.114;13.780;2023-02-10T03:06:10;-2.50;1.00
573;DHT22;271;51.114;13.780;2023-02-10T03:08:59;-2.40;1.00
573;DHT22;271;51.114;13.780;2023-02-10T03:11:47;-2.40;1.00
573;DHT22;271;51.114;13.780;2023-02-10T03:14:35;-2.30;1.00
573;DHT22;271;51.114;13.780;2023-02-10T03:17:23;-2.20;1.00
573;DHT22;271;51.114;13.780;2023-02-10T03:20:11;-2.10;1.00
573;DHT22;271;51.114;13.780;2023-02-10T03:22:59;-2.00;1.00
573;DHT22;271;51.114;13.780;2023-02-10T03:25:48;-1.90;1.00
573;DHT22;271;51.114;13.780;2023-02-10T03:28:35;-1.80;1.00
573;DHT22;271;51.114;13.780;2023-02-10T03:31:23;-1.60;1.00
573;DHT22;271;51.114;13.780;2023-02-10T03:34:11;-1.50;1.00
573;DHT22;271;51.114;13.780;2023-02-10T03:36:59;-1.40;1.00
573;DHT22;271;51.114;13.780;2023-02-10T03:39:47;-1.30;1.00
573;DHT22;271;51.114;13.780;2023-02-10T03:42:36;-1.20;1.00
573;DHT22;271;51.114;13.780;2023-02-10T03:45:24;-1.10;1.00
573;DHT22;271;51.114;13.780;2023-02-10T03:48:12;-1.00;1.00
573;DHT22;271;51.114;13.780;2023-02-10T03:51:03;-0.90;1.00
573;DHT22;271;51.114;13.780;2023-02-10T03:53:51;-0.80;1.00
573;DHT22;271;51.114;13.780;2023-02-10T03:56:39;-0.70;1.00
573;DHT22;271;51.114;13.780;2023-02-10T03:59:28;-0.60;1.00
573;DHT22;271;51.114;13.780;2023-02-10T04:02:16;-0.60;1.00
573;DHT22;271;51.114;13.780;2023-02-10T04:05:04;-0.50;1.00
573;DHT22;271;51.114;13.780;2023-02-10T04:07:52;-0.50;1.00
573;DHT22;271;51.114;13.780;2023-02-10T04:10:39;-0.40;1.00
573;DHT22;271;51.114;13.780;2023-02-10T04:13:27;-0.30;1.00
573;DHT22;271;51.114;13.780;2023-02-10T04:16:16;-0.30;1.00
573;DHT22;271;51.114;13.780;2023-02-10T04:19:06;-0.30;1.00
573;DHT22;271;51.114;13.780;2023-02-10T04:21:53;-0.20;1.00
573;DHT22;271;51.114;13.780;2023-02-10T04:24:41;-0.20;1.00
573;DHT22;271;51.114;13.780;2023-02-10T04:27:29;-0.10;1.00
573;DHT22;271;51.114;13.780;2023-02-10T04:30:17;-0.10;1.00
573;DHT22;271;51.114;13.780;2023-02-10T04:33:06;-0.10;1.00
573;DHT22;271;51.114;13.780;2023-02-10T04:35:54;-0.10;1.00
573;DHT22;271;51.114;13.780;2023-02-10T04:38:42;-0.10;1.00
573;DHT22;271;51.114;13.780;2023-02-10T04:41:30;-0.10;1.00
573;DHT22;271;51.114;13.780;2023-02-10T04:44:17;0.00;1.00
573;DHT22;271;51.114;13.780;2023-02-10T04:47:05;0.00;1.00
573;DHT22;271;51.114;13.780;2023-02-10T04:49:54;0.00;1.00
573;DHT22;271;51.114;13.780;2023-02-10T04:52:42;0.00;1.00
573;DHT22;271;51.114;13.780;2023-02-10T04:55:30;-0.10;1.00
573;DHT22;271;51.114;13.780;2023-02-10T04:58:18;-0.10;1.00
573;DHT22;271;51.114;13.780;2023-02-10T05:01:06;-0.20;1.00
573;DHT22;271;51.114;13.780;2023-02-10T05:03:54;-0.30;1.00
573;DHT22;271;51.114;13.780;2023-02-10T05:06:43;-0.30;1.00
573;DHT22;271;51.114;13.780;2023-02-10T05:09:31;-0.40;1.00
573;DHT22;271;51.114;13.780;2023-02-10T05:12:18;-0.40;1.00
573;DHT22;271;51.114;13.780;2023-02-10T05:15:07;-0.50;1.00
573;DHT22;271;51.114;13.780;2023-02-10T05:17:55;-0.70;1.00
573;DHT22;271;51.114;13.780;2023-02-10T05:20:43;-0.70;1.00
573;DHT22;271;51.114;13.780;2023-02-10T05:23:32;-0.70;1.00
573;DHT22;271;51.114;13.780;2023-02-10T05:26:20;-0.70;1.00
573;DHT22;271;51.114;13.780;2023-02-10T05:29:08;-0.70;1.00
573;DHT22;271;51.114;13.780;2023-02-10T05:31:55;-0.70;1.00
573;DHT22;271;51.114;13.780;2023-02-10T05:34:43;-0.70;1.00
573;DHT22;271;51.114;13.780;2023-02-10T05:37:31;-0.60;1.00
573;DHT22;271;51.114;13.780;2023-02-10T05:40:20;-0.50;1.00
573;DHT22;271;51.114;13.780;2023-02-10T05:43:08;-0.60;1.00
573;DHT22;271;51.114;13.780;2023-02-10T05:45:56;-0.60;1.00
573;DHT22;271;51.114;13.780;2023-02-10T05:48:44;-0.50;1.00
573;DHT22;271;51.114;13.780;2023-02-10T05:51:32;-0.50;1.00
573;DHT22;271;51.114;13.780;2023-02-10T05:54:19;-0.50;1.00
573;DHT22;271;51.114;13.780;2023-02-10T05:57:08;-0.40;1.00
573;DHT22;271;51.114;13.780;2023-02-10T05:59:56;-0.30;1.00
573;DHT22;271;51.114;13.780;2023-02-10T06:02:44;-0.20;1.00
573;DHT22;271;51.114;13.780;2023-02-10T06:05:32;-0.20;1.00
573;DHT22;271;51.114;13.780;2023-02-10T06:08:19;-0.30;1.00
573;DHT22;271;51.114;13.780;2023-02-10T06:11:07;-0.30;1.00
573;DHT22;271;51.114;13.780;2023-02-10T06:13:56;-0.30;1.00
573;DHT22;271;51.114;13.780;2023-02-10T06:16:44;-0.20;1.00
573;DHT22;271;51.114;13.780;2023-02-10T06:19:32;-0.20;1.00
573;DHT22;271;51.114;13.780;2023-02-10T06:22:19;-0.20;1.00
573;DHT22;271;51.114;13.780;2023-02-10T06:25:07;-0.20;1.00
573;DHT22;271;51.114;13.780;2023-02-10T06:27:55;-0.20;1.00
573;DHT22;271;51.114;13.780;2023-02-10T06:30:44;-0.20;1.00
573;DHT22;271;51.114;13.780;2023-02-10T06:33:32;-0.20;1.00
573;DHT22;271;51.114;13.780;2023-02-10T06:36:21;-0.10;1.00
573;DHT22;271;51.114;13.780;2023-02-10T06:39:09;0.00;1.00
573;DHT22;271;51.114;13.780;2023-02-10T06:41:57;-0.10;1.00
573;DHT22;271;51.114;13.780;2023-02-10T06:44:46;0.00;1.00
573;DHT22;271;51.114;13.780;2023-02-10T06:47:35;0.00;1.00
573;DHT22;271;51.114;13.780;2023-02-10T06:50:24;0.00;1.00
573;DHT22;271;51.114;13.780;2023-02-10T06:53:12;0.10;1.00
573;DHT22;271;51.114;13.780;2023-02-10T06:55:59;0.20;1.00
573;DHT22;271;51.114;13.780;2023-02-10T06:58:47;0.20;1.00
573;DHT22;271;51.114;13.780;2023-02-10T07:01:35;0.30;1.00
573;DHT22;271;51.114;13.780;2023-02-10T07:04:25;0.20;1.00
573;DHT22;271;51.114;13.780;2023-02-10T07:07:13;0.30;1.00
573;DHT22;271;51.114;13.780;2023-02-10T07:10:01;0.30;1.00
573;DHT22;271;51.114;13.780;2023-02-10T07:12:49;0.40;1.00
573;DHT22;271;51.114;13.780;2023-02-10T07:15:37;0.40;1.00
573;DHT22;271;51.114;13.780;2023-02-10T07:18:26;0.50;1.00
573;DHT22;271;51.114;13.780;2023-02-10T07:21:17;0.40;1.00
573;DHT22;271;51.114;13.780;2023-02-10T07:24:05;0.40;1.00
573;DHT22;271;51.114;13.780;2023-02-10T07:26:53;0.40;1.00
573;DHT22;271;51.114;13.780;2023-02-10T07:29:41;0.50;1.00
573;DHT22;271;51.114;13.780;2023-02-10T07:32:29;0.50;1.00
573;DHT22;271;51.114;13.780;2023-02-10T07:35:17;0.50;1.00
573;DHT22;271;51.114;13.780;2023-02-10T07:38:08;0.30;1.00
573;DHT22;271;51.114;13.780;2023-02-10T07:40:56;0.50;1.00
573;DHT22;271;51.114;13.780;2023-02-10T07:43:44;0.50;1.00
573;DHT22;271;51.114;13.780;2023-02-10T07:46:32;0.60;1.00
573;DHT22;271;51.114;13.780;2023-02-10T07:49:20;0.70;1.00
573;DHT22;271;51.114;13.780;2023-02-10T07:52:08;0.70;1.00
573;DHT22;271;51.114;13.780;2023-02-10T07:54:57;0.70;1.00
573;DHT22;271;51.114;13.780;2023-02-10T07:57:44;0.70;1.00
573;DHT22;271;51.114;13.780;2023-02-10T08:00:32;0.80;1.00
573;DHT22;271;51.114;13.780;2023-02-10T08:03:21;0.90;1.00
573;DHT22;271;51.114;13.780;2023-02-10T08:06:08;0.90;1.00
573;DHT22;271;51.114;13.780;2023-02-10T08:08:56;1.00;1.00
573;DHT22;271;51.114;13.780;2023-02-10T08:11:46;1.10;1.00
573;DHT22;271;51.114;13.780;2023-02-10T08:14:33;1.10;1.00
573;DHT22;271;51.114;13.780;2023-02-10T08:17:21;1.10;1.00
573;DHT22;271;51.114;13.780;2023-02-10T08:20:10;1.10;1.00
573;DHT22;271;51.114;13.780;2023-02-10T08:22:58;1.10;1.00
573;DHT22;271;51.114;13.780;2023-02-10T08:25:47;1.00;1.00
573;DHT22;271;51.114;13.780;2023-02-10T08:28:38;1.00;1.00
573;DHT22;271;51.114;13.780;2023-02-10T08:31:41;1.10;1.00
573;DHT22;271;51.114;13.780;2023-02-10T08:34:30;1.20;1.00
573;DHT22;271;51.114;13.780;2023-02-10T08:37:19;1.20;1.00
573;DHT22;271;51.114;13.780;2023-02-10T08:40:09;1.10;1.00
573;DHT22;271;51.114;13.780;2023-02-10T08:42:58;1.30;1.00
573;DHT22;271;51.114;13.780;2023-02-10T08:45:47;1.40;1.00
573;DHT22;271;51.114;13.780;2023-02-10T08:48:35;1.60;1.00
573;DHT22;271;51.114;13.780;2023-02-10T08:51:22;1.60;1.00
573;DHT22;271;51.114;13.780;2023-02-10T08:54:12;1.60;1.00
573;DHT22;271;51.114;13.780;2023-02-10T08:57:01;1.60;1.00
573;DHT22;271;51.114;13.780;2023-02-10T08:59:52;1.60;1.00
573;DHT22;271;51.114;13.780;2023-02-10T09:02:41;1.60;1.00
573;DHT22;271;51.114;13.780;2023-02-10T09:05:29;1.60;1.00
573;DHT22;271;51.114;13.780;2023-02-10T09:08:17;1.60;1.00
573;DHT22;271;51.114;13.780;2023-02-10T09:11:06;1.60;1.00
573;DHT22;271;51.114;13.780;2023-02-10T09:13:53;1.60;1.00
573;DHT22;271;51.114;13.780;2023-02-10T09:16:43;1.50;1.00
573;DHT22;271;51.114;13.780;2023-02-10T09:19:32;1.50;1.00
573;DHT22;271;51.114;13.780;2023-02-10T09:22:19;1.60;1.00
573;DHT22;271;51.114;13.780;2023-02-10T09:25:07;1.70;1.00
573;DHT22;271;51.114;13.780;2023-02-10T09:27:55;1.70;1.00
573;DHT22;271;51.114;13.780;2023-02-10T09:30:43;1.70;1.00
573;DHT22;271;51.114;13.780;2023-02-10T09:33:31;1.80;1.00
573;DHT22;271;51.114;13.780;2023-02-10T09:36:20;1.80;1.00
573;DHT22;271;51.114;13.780;2023-02-10T09:39:08;1.80;1.00
573;DHT22;271;51.114;13.780;2023-02-10T09:42:01;1.70;1.00
573;DHT22;271;51.114;13.780;2023-02-10T09:44:56;1.70;1.00
573;DHT22;271;51.114;13.780;2023-02-10T09:47:49;1.70;1.00
573;DHT22;271;51.114;13.780;2023-02-10T09:50:45;1.70;1.00
573;DHT22;271;51.114;13.780;2023-02-10T09:53:37;1.80;1.00
573;DHT22;271;51.114;13.780;2023-02-10T09:56:24;1.80;1.00
573;DHT22;271;51.114;13.780;2023-02-10T09:59:14;1.80;1.00
573;DHT22;271;51.114;13.780;2023-02-10T10:02:11;1.80;1.00
573;DHT22;271;51.114;13.780;2023-02-10T10:05:11;1.90;1.00
573;DHT22;271;51.114;13.780;2023-02-10T10:08:03;1.90;1.00
573;DHT22;271;51.114;13.780;2023-02-10T10:10:58;1.90;1.00
573;DHT22;271;51.114;13.780;2023-02-10T10:13:48;2.00;1.00
573;DHT22;271;51.114;13.780;2023-02-10T10:17:00;2.00;1.00
573;DHT22;271;51.114;13.780;2023-02-10T10:19:57;2.00;1.00
573;DHT22;271;51.114;13.780;2023-02-10T10:22:54;2.00;1.00
573;DHT22;271;51.114;13.780;2023-02-10T10:25:54;2.00;1.00
573;DHT22;271;51.114;13.780;2023-02-10T10:28:53;2.10;1.00
573;DHT22;271;51.114;13.780;2023-02-10T10:31:46;2.10;1.00
573;DHT22;271;51.114;13.780;2023-02-10T10:34:39;2.10;1.00
573;DHT22;271;51.114;13.780;2023-02-10T10:37:27;2.10;1.00
573;DHT22;271;51.114;13.780;2023-02-10T10:40:17;2.20;1.00
573;DHT22;271;51.114;13.780;2023-02-10T10:43:13;2.10;1.00
573;DHT22;271;51.114;13.780;2023-02-10T10:46:09;2.20;1.00
573;DHT22;271;51.114;13.780;2023-02-10T10:48:58;2.20;1.00
573;DHT22;271;51.114;13.780;2023-02-10T10:51:46;2.10;1.00
573;DHT22;271;51.114;13.780;2023-02-10T10:54:35;2.10;1.00
573;DHT22;271;51.114;13.780;2023-02-10T10:57:24;2.20;1.00
573;DHT22;271;51.114;13.780;2023-02-10T11:00:19;2.20;1.00
573;DHT22;271;51.114;13.780;2023-02-10T11:03:15;2.30;1.00
573;DHT22;271;51.114;13.780;2023-02-10T11:06:07;2.30;1.00
573;DHT22;271;51.114;13.780;2023-02-10T11:09:00;2.30;1.00
573;DHT22;271;51.114;13.780;2023-02-10T11:11:49;2.30;1.00
573;DHT22;271;51.114;13.780;2023-02-10T11:14:39;2.20;1.00
573;DHT22;271;51.114;13.780;2023-02-10T11:17:38;2.30;1.00
573;DHT22;271;51.114;13.780;2023-02-10T11:20:29;2.20;1.00
573;DHT22;271;51.114;13.780;2023-02-10T11:23:17;2.20;1.00
573;DHT22;271;51.114;13.780;2023-02-10T11:26:15;2.10;1.00
573;DHT22;271;51.114;13.780;2023-02-10T11:29:09;2.20;1.00
573;DHT22;271;51.114;13.780;2023-02-10T11:31:58;2.20;1.00
573;DHT22;271;51.114;13.780;2023-02-10T11:34:49;2.10;1.00
573;DHT22;271;51.114;13.780;2023-02-10T11:37:38;2.20;1.00
573;DHT22;271;51.114;13.780;2023-02-10T11:40:28;2.20;1.00
573;DHT22;271;51.114;13.780;2023-02-10T11:43:17;2.30;1.00
573;DHT22;271;51.114;13.780;2023-02-10T11:46:06;2.20;1.00
573;DHT22;271;51.114;13.780;2023-02-10T11:48:57;2.20;1.00
573;DHT22;271;51.114;13.780;2023-02-10T11:52:01;2.30;1.00
573;DHT22;271;51.114;13.780;2023-02-10T11:54:50;2.40;1.00
573;DHT22;271;51.114;13.780;2023-02-10T11:57:47;2.40;1.00
573;DHT22;271;51.114;13.780;2023-02-10T12:01:03;2.50;1.00
573;DHT22;271;51.114;13.780;2023-02-10T12:04:01;2.60;1.00
573;DHT22;271;51.114;13.780;2023-02-10T12:06:56;2.70;1.00
573;DHT22;271;51.114;13.780;2023-02-10T12:09:52;2.60;1.00
573;DHT22;271;51.114;13.780;2023-02-10T12:12:47;2.60;1.00
573;DHT22;271;51.114;13.780;2023-02-10T12:15:49;2.70;1.00
573;DHT22;271;51.114;13.780;2023-02-10T12:18:50;2.90;1.00
573;DHT22;271;51.114;13.780;2023-02-10T12:21:53;3.00;1.00
573;DHT22;271;51.114;13.780;2023-02-10T12:25:01;3.20;1.00
573;DHT22;271;51.114;13.780;2023-02-10T12:27:59;3.20;1.00
573;DHT22;271;51.114;13.780;2023-02-10T12:30:56;3.30;1.00
573;DHT22;271;51.114;13.780;2023-02-10T12:33:58;3.50;1.00
573;DHT22;271;51.114;13.780;2023-02-10T12:37:07;3.40;1.00
573;DHT22;271;51.114;13.780;2023-02-10T12:40:12;3.50;1.00
573;DHT22;271;51.114;13.780;2023-02-10T12:43:11;3.60;1.00
573;DHT22;271;51.114;13.780;2023-02-10T12:46:11;3.40;1.00
573;DHT22;271;51.114;13.780;2023-02-10T12:49:10;3.30;1.00
573;DHT22;271;51.114;13.780;2023-02-10T12:52:06;3.40;1.00
573;DHT22;271;51.114;13.780;2023-02-10T12:55:05;3.40;1.00
573;DHT22;271;51.114;13.780;2023-02-10T12:58:02;3.50;1.00
573;DHT22;271;51.114;13.780;2023-02-10T13:01:00;3.70;1.00
573;DHT22;271;51.114;13.780;2023-02-10T13:03:56;3.70;1.00
573;DHT22;271;51.114;13.780;2023-02-10T13:06:50;3.60;1.00
573;DHT22;271;51.114;13.780;2023-02-10T13:09:45;3.60;1.00
573;DHT22;271;51.114;13.780;2023-02-10T13:12:39;3.60;1.00
573;DHT22;271;51.114;13.780;2023-02-10T13:15:31;3.70;1.00
573;DHT22;271;51.114;13.780;2023-02-10T13:18:22;3.90;1.00
573;DHT22;271;51.114;13.780;2023-02-10T13:21:15;4.00;1.00
573;DHT22;271;51.114;13.780;2023-02-10T13:24:10;4.10;1.00
573;DHT22;271;51.114;13.780;2023-02-10T13:27:10;4.10;1.00
573;DHT22;271;51.114;13.780;2023-02-10T13:30:20;4.20;1.00
573;DHT22;271;51.114;13.780;2023-02-10T13:33:20;4.00;1.00
573;DHT22;271;51.114;13.780;2023-02-10T13:36:14;3.90;1.00
573;DHT22;271;51.114;13.780;2023-02-10T13:39:04;3.90;1.00
573;DHT22;271;51.114;13.780;2023-02-10T13:42:08;3.80;1.00
573;DHT22;271;51.114;13.780;2023-02-10T13:44:58;3.70;1.00
573;DHT22;271;51.114;13.780;2023-02-10T13:47:51;3.70;1.00
573;DHT22;271;51.114;13.780;2023-02-10T13:50:47;3.80;1.00
573;DHT22;271;51.114;13.780;2023-02-10T13:53:40;3.70;1.00
573;DHT22;271;51.114;13.780;2023-02-10T13:56:29;3.80;1.00
573;DHT22;271;51.114;13.780;2023-02-10T13:59:36;3.80;1.00
573;DHT22;271;51.114;13.780;2023-02-10T14:02:27;3.80;1.00
573;DHT22;271;51.114;13.780;2023-02-10T14:05:26;3.80;1.00
573;DHT22;271;51.114;13.780;2023-02-10T14:08:25;3.80;1.00
573;DHT22;271;51.114;13.780;2023-02-10T14:11:38;3.80;1.00
573;DHT22;271;51.114;13.780;2023-02-10T14:14:30;3.90;1.00
573;DHT22;271;51.114;13.780;2023-02-10T14:17:21;3.90;1.00
573;DHT22;271;51.114;13.780;2023-02-10T14:20:15;3.80;1.00
573;DHT22;271;51.114;13.780;2023-02-10T14:23:06;3.80;1.00
573;DHT22;271;51.114;13.780;2023-02-10T14:25:58;3.90;1.00
573;DHT22;271;51.114;13.780;2023-02-10T14:28:49;3.90;1.00
573;DHT22;271;51.114;13.780;2023-02-10T14:31:39;3.90;1.00
573;DHT22;271;51.114;13.780;2023-02-10T14:34:29;3.80;1.00
573;DHT22;271;51.114;13.780;2023-02-10T14:37:19;3.80;1.00
573;DHT22;271;51.114;13.780;2023-02-10T14:40:16;3.80;1.00
573;DHT22;271;51.114;13.780;2023-02-10T14:43:13;3.80;1.00
573;DHT22;271;51.114;13.780;2023-02-10T14:46:01;3.80;1.00
573;DHT22;271;51.114;13.780;2023-02-10T14:48:55;3.80;1.00
573;DHT22;271;51.114;13.780;2023-02-10T14:51:46;3.80;1.00
573;DHT22;271;51.114;13.780;2023-02-10T14:54:37;3.80;1.00
573;DHT22;271;51.114;13.780;2023-02-10T14:57:28;3.80;1.00
573;DHT22;271;51.114;13.780;2023-02-10T15:00:17;3.90;1.00
573;DHT22;271;51.114;13.780;2023-02-10T15:03:05;3.80;1.00
573;DHT22;271;51.114;13.780;2023-02-10T15:05:56;3.80;1.00
573;DHT22;271;51.114;13.780;2023-02-10T15:08:50;3.80;1.00
573;DHT22;271;51.114;13.780;2023-02-10T15:11:42;3.80;1.00
573;DHT22;271;51.114;13.780;2023-02-10T15:14:51;3.80;1.00
573;DHT22;271;51.114;13.780;2023-02-10T15:17:43;3.80;1.00
573;DHT22;271;51.114;13.780;2023-02-10T15:20:32;3.80;1.00
573;DHT22;271;51.114;13.780;2023-02-10T15:23:22;3.90;1.00
573;DHT22;271;51.114;13.780;2023-02-10T15:26:18;3.80;1.00
573;DHT22;271;51.114;13.780;2023-02-10T15:29:10;3.70;1.00
573;DHT22;271;51.114;13.780;2023-02-10T15:31:58;3.70;1.00
573;DHT22;271;51.114;13.780;2023-02-10T15:34:48;3.70;1.00
573;DHT22;271;51.114;13.780;2023-02-10T15:37:39;3.70;1.00
573;DHT22;271;51.114;13.780;2023-02-10T15:40:29;3.60;1.00
573;DHT22;271;51.114;13.780;2023-02-10T15:43:27;3.60;1.00
573;DHT22;271;51.114;13.780;2023-02-10T15:46:16;3.50;1.00
573;DHT22;271;51.114;13.780;2023-02-10T15:49:08;3.60;1.00
573;DHT22;271;51.114;13.780;2023-02-10T15:51:56;3.60;1.00
573;DHT22;271;51.114;13.780;2023-02-10T15:54:43;3.60;1.00
573;DHT22;271;51.114;13.780;2023-02-10T15:57:33;3.60;1.00
573;DHT22;271;51.114;13.780;2023-02-10T16:00:23;3.60;1.00
573;DHT22;271;51.114;13.780;2023-02-10T16:03:11;3.50;1.00
573;DHT22;271;51.114;13.780;2023-02-10T16:06:00;3.50;1.00
573;DHT22;271;51.114;13.780;2023-02-10T16:08:48;3.50;1.00
573;DHT22;271;51.114;13.780;2023-02-10T16:11:36;3.40;1.00
573;DHT22;271;51.114;13.780;2023-02-10T16:14:25;3.40;1.00
573;DHT22;271;51.114;13.780;2023-02-10T16:17:20;3.40;1.00
573;DHT22;271;51.114;13.780;2023-02-10T16:20:14;3.50;1.00
573;DHT22;271;51.114;13.780;2023-02-10T16:23:07;3.50;1.00
573;DHT22;271;51.114;13.780;2023-02-10T16:25:55;3.50;1.00
573;DHT22;271;51.114;13.780;2023-02-10T16:28:43;3.40;1.00
573;DHT22;271;51.114;13.780;2023-02-10T16:31:32;3.40;1.00
573;DHT22;271;51.114;13.780;2023-02-10T16:34:20;3.40;1.00
573;DHT22;271;51.114;13.780;2023-02-10T16:37:17;3.30;1.00
573;DHT22;271;51.114;13.780;2023-02-10T16:40:06;3.40;1.00
573;DHT22;271;51.114;13.780;2023-02-10T16:42:54;3.40;1.00
573;DHT22;271;51.114;13.780;2023-02-10T16:45:42;3.40;1.00
573;DHT22;271;51.114;13.780;2023-02-10T16:48:31;3.40;1.00
573;DHT22;271;51.114;13.780;2023-02-10T16:51:19;3.40;1.00
573;DHT22;271;51.114;13.780;2023-02-10T16:54:07;3.30;1.00
573;DHT22;271;51.114;13.780;2023-02-10T16:56:56;3.20;1.00
573;DHT22;271;51.114;13.780;2023-02-10T16:59:44;3.30;1.00
573;DHT22;271;51.114;13.780;2023-02-10T17:02:35;3.30;1.00
573;DHT22;271;51.114;13.780;2023-02-10T17:05:24;3.20;1.00
573;DHT22;271;51.114;13.780;2023-02-10T17:08:13;3.20;1.00
573;DHT22;271;51.114;13.780;2023-02-10T17:11:01;3.20;1.00
573;DHT22;271;51.114;13.780;2023-02-10T17:13:49;3.10;1.00
573;DHT22;271;51.114;13.780;2023-02-10T17:16:40;3.00;1.00
573;DHT22;271;51.114;13.780;2023-02-10T17:19:28;2.90;1.00
573;DHT22;271;51.114;13.780;2023-02-10T17:22:20;2.80;1.00
573;DHT22;271;51.114;13.780;2023-02-10T17:25:08;2.80;1.00
573;DHT22;271;51.114;13.780;2023-02-10T17:27:56;2.80;1.00
573;DHT22;271;51.114;13.780;2023-02-10T17:30:44;2.70;1.00
573;DHT22;271;51.114;13.780;2023-02-10T17:33:32;2.60;1.00
573;DHT22;271;51.114;13.780;2023-02-10T17:36:22;2.70;1.00
573;DHT22;271;51.114;13.780;2023-02-10T17:39:15;2.70;1.00
573;DHT22;271;51.114;13.780;2023-02-10T17:42:17;2.70;1.00
573;DHT22;271;51.114;13.780;2023-02-10T17:45:07;2.70;1.00
573;DHT22;271;51.114;13.780;2023-02-10T17:47:55;2.70;1.00
573;DHT22;271;51.114;13.780;2023-02-10T17:50:42;2.70;1.00
573;DHT22;271;51.114;13.780;2023-02-10T17:53:30;2.60;1.00
573;DHT22;271;51.114;13.780;2023-02-10T17:56:20;2.60;1.00
573;DHT22;271;51.114;13.780;2023-02-10T17:59:08;2.60;1.00
573;DHT22;271;51.114;13.780;2023-02-10T18:01:56;2.60;1.00
573;DHT22;271;51.114;13.780;2023-02-10T18:04:46;2.60;1.00
573;DHT22;271;51.114;13.780;2023-02-10T18:07:35;2.50;1.00
573;DHT22;271;51.114;13.780;2023-02-10T18:10:23;2.60;1.00
573;DHT22;271;51.114;13.780;2023-02-10T18:13:14;2.50;1.00
573;DHT22;271;51.114;13.780;2023-02-10T18:16:01;2.50;1.00
573;DHT22;271;51.114;13.780;2023-02-10T18:18:49;2.60;1.00
573;DHT22;271;51.114;13.780;2023-02-10T18:21:38;2.50;1.00
573;DHT22;271;51.114;13.780;2023-02-10T18:24:26;2.60;1.00
573;DHT22;271;51.114;13.780;2023-02-10T18:27:14;2.60;1.00
573;DHT22;271;51.114;13.780;2023-02-10T18:30:04;2.60;1.00
573;DHT22;271;51.114;13.780;2023-02-10T18:32:54;2.60;1.00
573;DHT22;271;51.114;13.780;2023-02-10T18:35:42;2.60;1.00
573;DHT22;271;51.114;13.780;2023-02-10T18:38:29;2.70;1.00
573;DHT22;271;51.114;13.780;2023-02-10T18:41:17;2.70;1.00
573;DHT22;271;51.114;13.780;2023-02-10T18:44:05;2.70;1.00
573;DHT22;271;51.114;13.780;2023-02-10T18:46:54;2.70;1.00
573;DHT22;271;51.114;13.780;2023-02-10T18:49:42;2.60;1.00
573;DHT22;271;51.114;13.780;2023-02-10T18:52:30;2.60;1.00
573;DHT22;271;51.114;13.780;2023-02-10T18:55:18;2.60;1.00
573;DHT22;271;51.114;13.780;2023-02-10T18:58:05;2.60;1.00
573;DHT22;271;51.114;13.780;2023-02-10T19:00:53;2.60;1.00
573;DHT22;271;51.114;13.780;2023-02-10T19:03:43;2.60;1.00
573;DHT22;271;51.114;13.780;2023-02-10T19:06:31;2.50;1.00
573;DHT22;271;51.114;13.780;2023-02-10T19:09:20;2.50;1.00
573;DHT22;271;51.114;13.780;2023-02-10T19:12:07;2.40;1.00
573;DHT22;271;51.114;13.780;2023-02-10T19:14:55;2.30;1.00
573;DHT22;271;51.114;13.780;2023-02-10T19:17:43;2.30;1.00
573;DHT22;271;51.114;13.780;2023-02-10T19:20:32;2.30;1.00
573;DHT22;271;51.114;13.780;2023-02-10T19:23:20;2.20;1.00
573;DHT22;271;51.114;13.780;2023-02-10T19:26:09;2.30;1.00
573;DHT22;271;51.114;13.780;2023-02-10T19:28:57;2.30;1.00
573;DHT22;271;51.114;13.780;2023-02-10T19:31:47;2.30;1.00